sensor_id;sensor_type;location;lat;lon;timestamp;temperature;humidity
49238;DHT22;35069;47.906;1.892;2024-03-08T00:01:30;7.50;99.90
49238;DHT22;35069;47.906;1.892;2024-03-08T00:03:56;7.40;99.90
49238;DHT22;35069;47.906;1.892;2024-03-08T00:06:22;7.40;99.90
49238;DHT22;35069;47.906;1.892;2024-03-08T00:08:47;7.40;99.90
49238;DHT22;35069;47.906;1.892;2024-03-08T00:11:13;7.40;99.90
49238;DHT22;35069;47.906;1.892;2024-03-08T00:13:39;7.40;99.90
49238;DHT22;35069;47.906;1.892;2024-03-08T00:16:04;7.30;99.90
49238;DHT22;35069;47.906;1.892;2024-03-08T00:18:30;7.30;99.90
49238;DHT22;35069;47.906;1.892;2024-03-08T00:20:56;7.30;99.90
49238;DHT22;35069;47.906;1.892;2024-03-08T00:23:21;7.30;99.90
49238;DHT22;35069;47.906;1.892;2024-03-08T00:25:47;7.30;99.90
49238;DHT22;35069;47.906;1.892;2024-03-08T00:28:12;7.30;99.90
49238;DHT22;35069;47.906;1.892;2024-03-08T00:30:40;7.20;99.90
49238;DHT22;35069;47.906;1.892;2024-03-08T00:33:06;7.20;99.90
49238;DHT22;35069;47.906;1.892;2024-03-08T00:35:31;7.20;99.90
49238;DHT22;35069;47.906;1.892;2024-03-08T00:37:57;7.10;99.90
49238;DHT22;35069;47.906;1.892;2024-03-08T00:40:22;7.10;99.90
49238;DHT22;35069;47.906;1.892;2024-03-08T00:42:48;7.10;99.90
49238;DHT22;35069;47.906;1.892;2024-03-08T00:45:14;7.00;99.90
49238;DHT22;35069;47.906;1.892;2024-03-08T00:47:39;7.00;99.90
49238;DHT22;35069;47.906;1.892;2024-03-08T00:50:05;7.00;99.90
49238;DHT22;35069;47.906;1.892;2024-03-08T00:52:31;7.00;99.90
49238;DHT22;35069;47.906;1.892;2024-03-08T00:54:57;6.90;99.90
49238;DHT22;35069;47.906;1.892;2024-03-08T00:57:22;6.90;99.90
49238;DHT22;35069;47.906;1.892;2024-03-08T00:59:48;6.90;99.90
49238;DHT22;35069;47.906;1.892;2024-03-08T01:02:18;6.90;99.90
49238;DHT22;35069;47.906;1.892;2024-03-08T01:04:44;6.90;99.90
49238;DHT22;35069;47.906;1.892;2024-03-08T01:07:10;6.80;99.90
49238;DHT22;35069;47.906;1.892;2024-03-08T01:09:36;6.80;99.90
49238;DHT22;35069;47.906;1.892;2024-03-08T01:12:01;6.70;99.90
49238;DHT22;35069;47.906;1.892;2024-03-08T01:14:27;6.70;99.90
49238;DHT22;35069;47.906;1.892;2024-03-08T01:16:54;6.70;99.90
49238;DHT22;35069;47.906;1.892;2024-03-08T01:19:20;6.70;99.90
49238;DHT22;35069;47.906;1.892;2024-03-08T01:21:46;6.70;99.90
49238;DHT22;35069;47.906;1.892;2024-03-08T01:24:12;6.60;99.90
49238;DHT22;35069;47.906;1.892;2024-03-08T01:26:37;6.60;99.90
49238;DHT22;35069;47.906;1.892;2024-03-08T01:29:04;6.60;99.90
49238;DHT22;35069;47.906;1.892;2024-03-08T01:31:30;6.50;99.90
49238;DHT22;35069;47.906;1.892;2024-03-08T01:33:56;6.50;99.90
49238;DHT22;35069;47.906;1.892;2024-03-08T01:36:22;6.50;99.90
49238;DHT22;35069;47.906;1.892;2024-03-08T01:38:48;6.50;99.90
49238;DHT22;35069;47.906;1.892;2024-03-08T01:41:14;6.40;99.90
49238;DHT22;35069;47.906;1.892;2024-03-08T01:43:41;6.50;99.90
49238;DHT22;35069;47.906;1.892;2024-03-08T01:46:07;6.40;99.90
49238;DHT22;35069;47.906;1.892;2024-03-08T01:48:34;6.40;99.90
49238;DHT22;35069;47.906;1.892;2024-03-08T01:51:00;6.30;99.90
49238;DHT22;35069;47.906;1.892;2024-03-08T01:53:27;6.40;99.90
49238;DHT22;35069;47.906;1.892;2024-03-08T01:55:56;6.30;99.90
49238;DHT22;35069;47.906;1.892;2024-03-08T01:58:23;6.30;99.90
49238;DHT22;35069;47.906;1.892;2024-03-08T02:00:49;6.30;99.90
49238;DHT22;35069;47.906;1.892;2024-03-08T02:03:18;6.30;99.90
49238;DHT22;35069;47.906;1.892;2024-03-08T02:05:44;6.30;99.90
49238;DHT22;35069;47.906;1.892;2024-03-08T02:08:10;6.20;99.90
49238;DHT22;35069;47.906;1.892;2024-03-08T02:10:40;6.20;99.90
49238;DHT22;35069;47.906;1.892;2024-03-08T02:13:07;6.20;99.90
49238;DHT22;35069;47.906;1.892;2024-03-08T02:18:21;6.20;99.90
49238;DHT22;35069;47.906;1.892;2024-03-08T02:20:49;6.10;99.90
49238;DHT22;35069;47.906;1.892;2024-03-08T02:23:15;6.20;99.90
49238;DHT22;35069;47.906;1.892;2024-03-08T02:25:40;6.10;99.90
49238;DHT22;35069;47.906;1.892;2024-03-08T02:28:12;6.10;99.90
49238;DHT22;35069;47.906;1.892;2024-03-08T02:30:38;6.10;99.90
49238;DHT22;35069;47.906;1.892;2024-03-08T02:33:05;6.00;99.90
49238;DHT22;35069;47.906;1.892;2024-03-08T02:35:31;6.00;99.90
49238;DHT22;35069;47.906;1.892;2024-03-08T02:37:57;6.00;99.90
49238;DHT22;35069;47.906;1.892;2024-03-08T02:40:23;6.00;99.90
49238;DHT22;35069;47.906;1.892;2024-03-08T02:42:49;6.00;99.90
49238;DHT22;35069;47.906;1.892;2024-03-08T02:45:15;5.90;99.90
49238;DHT22;35069;47.906;1.892;2024-03-08T02:47:41;5.90;99.90
49238;DHT22;35069;47.906;1.892;2024-03-08T02:50:07;5.90;99.90
49238;DHT22;35069;47.906;1.892;2024-03-08T02:52:35;5.90;99.90
49238;DHT22;35069;47.906;1.892;2024-03-08T02:55:04;5.80;99.90
49238;DHT22;35069;47.906;1.892;2024-03-08T02:57:31;5.80;99.90
49238;DHT22;35069;47.906;1.892;2024-03-08T02:59:57;5.70;99.90
49238;DHT22;35069;47.906;1.892;2024-03-08T03:02:25;5.70;99.90
49238;DHT22;35069;47.906;1.892;2024-03-08T03:04:52;5.70;99.90
49238;DHT22;35069;47.906;1.892;2024-03-08T03:07:18;5.70;99.90
49238;DHT22;35069;47.906;1.892;2024-03-08T03:09:43;5.60;99.90
49238;DHT22;35069;47.906;1.892;2024-03-08T03:12:09;5.60;99.90
49238;DHT22;35069;47.906;1.892;2024-03-08T03:14:37;5.60;99.90
49238;DHT22;35069;47.906;1.892;2024-03-08T03:17:05;5.60;99.90
49238;DHT22;35069;47.906;1.892;2024-03-08T03:19:31;5.50;99.90
49238;DHT22;35069;47.906;1.892;2024-03-08T03:21:57;5.50;99.90
49238;DHT22;35069;47.906;1.892;2024-03-08T03:24:23;5.50;99.90
49238;DHT22;35069;47.906;1.892;2024-03-08T03:26:49;5.40;99.90
49238;DHT22;35069;47.906;1.892;2024-03-08T03:29:15;5.50;99.90
49238;DHT22;35069;47.906;1.892;2024-03-08T03:31:42;5.40;99.90
49238;DHT22;35069;47.906;1.892;2024-03-08T03:34:12;5.30;99.90
49238;DHT22;35069;47.906;1.892;2024-03-08T03:36:37;5.40;99.90
49238;DHT22;35069;47.906;1.892;2024-03-08T03:39:08;5.40;99.90
49238;DHT22;35069;47.906;1.892;2024-03-08T03:41:38;5.40;99.90
49238;DHT22;35069;47.906;1.892;2024-03-08T03:44:05;5.30;99.90
49238;DHT22;35069;47.906;1.892;2024-03-08T03:46:32;5.40;99.90
49238;DHT22;35069;47.906;1.892;2024-03-08T03:48:58;5.30;99.90
49238;DHT22;35069;47.906;1.892;2024-03-08T03:51:24;5.30;99.90
49238;DHT22;35069;47.906;1.892;2024-03-08T03:53:50;5.30;99.90
49238;DHT22;35069;47.906;1.892;2024-03-08T03:56:15;5.30;99.90
49238;DHT22;35069;47.906;1.892;2024-03-08T03:58:41;5.30;99.90
49238;DHT22;35069;47.906;1.892;2024-03-08T04:01:08;5.30;99.90
49238;DHT22;35069;47.906;1.892;2024-03-08T04:03:35;5.30;99.90
49238;DHT22;35069;47.906;1.892;2024-03-08T04:06:00;5.30;99.90
49238;DHT22;35069;47.906;1.892;2024-03-08T04:08:27;5.20;99.90
49238;DHT22;35069;47.906;1.892;2024-03-08T04:10:52;5.20;99.90
49238;DHT22;35069;47.906;1.892;2024-03-08T04:13:18;5.20;99.90
49238;DHT22;35069;47.906;1.892;2024-03-08T04:15:48;5.20;99.90
49238;DHT22;35069;47.906;1.892;2024-03-08T04:18:14;5.20;99.90
49238;DHT22;35069;47.906;1.892;2024-03-08T04:20:40;5.20;99.90
49238;DHT22;35069;47.906;1.892;2024-03-08T04:23:06;5.10;99.90
49238;DHT22;35069;47.906;1.892;2024-03-08T04:25:32;5.10;99.90
49238;DHT22;35069;47.906;1.892;2024-03-08T04:27:58;5.10;99.90
49238;DHT22;35069;47.906;1.892;2024-03-08T04:30:24;5.10;99.90
49238;DHT22;35069;47.906;1.892;2024-03-08T04:32:50;5.00;99.90
49238;DHT22;35069;47.906;1.892;2024-03-08T04:35:16;5.00;99.90
49238;DHT22;35069;47.906;1.892;2024-03-08T04:37:42;5.00;99.90
49238;DHT22;35069;47.906;1.892;2024-03-08T04:40:07;5.00;99.90
49238;DHT22;35069;47.906;1.892;2024-03-08T04:42:33;5.00;99.90
49238;DHT22;35069;47.906;1.892;2024-03-08T04:45:00;5.00;99.90
49238;DHT22;35069;47.906;1.892;2024-03-08T04:47:26;4.90;99.90
49238;DHT22;35069;47.906;1.892;2024-03-08T04:49:52;4.90;99.90
49238;DHT22;35069;47.906;1.892;2024-03-08T04:52:18;4.90;99.90
49238;DHT22;35069;47.906;1.892;2024-03-08T04:54:44;4.90;99.90
49238;DHT22;35069;47.906;1.892;2024-03-08T04:57:12;4.80;99.90
49238;DHT22;35069;47.906;1.892;2024-03-08T04:59:38;4.90;99.90
49238;DHT22;35069;47.906;1.892;2024-03-08T05:02:03;4.90;99.90
49238;DHT22;35069;47.906;1.892;2024-03-08T05:04:29;4.80;99.90
49238;DHT22;35069;47.906;1.892;2024-03-08T05:06:55;4.80;99.90
49238;DHT22;35069;47.906;1.892;2024-03-08T05:09:21;4.80;99.90
49238;DHT22;35069;47.906;1.892;2024-03-08T05:11:47;4.70;99.90
49238;DHT22;35069;47.906;1.892;2024-03-08T05:14:13;4.70;99.90
49238;DHT22;35069;47.906;1.892;2024-03-08T05:16:43;4.60;99.90
49238;DHT22;35069;47.906;1.892;2024-03-08T05:19:08;4.70;99.90
49238;DHT22;35069;47.906;1.892;2024-03-08T05:21:34;4.70;99.90
49238;DHT22;35069;47.906;1.892;2024-03-08T05:24:00;4.60;99.90
49238;DHT22;35069;47.906;1.892;2024-03-08T05:26:25;4.60;99.90
49238;DHT22;35069;47.906;1.892;2024-03-08T05:28:51;4.60;99.90
49238;DHT22;35069;47.906;1.892;2024-03-08T05:31:20;4.70;99.90
49238;DHT22;35069;47.906;1.892;2024-03-08T05:33:48;4.60;99.90
49238;DHT22;35069;47.906;1.892;2024-03-08T05:36:14;4.60;99.90
49238;DHT22;35069;47.906;1.892;2024-03-08T05:38:42;4.60;99.90
49238;DHT22;35069;47.906;1.892;2024-03-08T05:41:09;4.60;99.90
49238;DHT22;35069;47.906;1.892;2024-03-08T05:43:34;4.60;99.90
49238;DHT22;35069;47.906;1.892;2024-03-08T05:46:00;4.60;99.90
49238;DHT22;35069;47.906;1.892;2024-03-08T05:48:26;4.60;99.90
49238;DHT22;35069;47.906;1.892;2024-03-08T05:50:51;4.60;99.90
49238;DHT22;35069;47.906;1.892;2024-03-08T05:53:17;4.60;99.90
49238;DHT22;35069;47.906;1.892;2024-03-08T05:55:42;4.60;99.90
49238;DHT22;35069;47.906;1.892;2024-03-08T05:58:09;4.60;99.90
49238;DHT22;35069;47.906;1.892;2024-03-08T06:00:36;4.50;99.90
49238;DHT22;35069;47.906;1.892;2024-03-08T06:03:02;4.50;99.90
49238;DHT22;35069;47.906;1.892;2024-03-08T06:05:28;4.50;99.90
49238;DHT22;35069;47.906;1.892;2024-03-08T06:07:53;4.50;99.90
49238;DHT22;35069;47.906;1.892;2024-03-08T06:10:19;4.50;99.90
49238;DHT22;35069;47.906;1.892;2024-03-08T06:12:45;4.50;99.90
49238;DHT22;35069;47.906;1.892;2024-03-08T06:15:11;4.50;99.90
49238;DHT22;35069;47.906;1.892;2024-03-08T06:17:40;4.50;99.90
49238;DHT22;35069;47.906;1.892;2024-03-08T06:20:06;4.50;99.90
49238;DHT22;35069;47.906;1.892;2024-03-08T06:22:39;4.50;99.90
49238;DHT22;35069;47.906;1.892;2024-03-08T06:25:09;4.50;99.90
49238;DHT22;35069;47.906;1.892;2024-03-08T06:27:42;4.50;99.90
49238;DHT22;35069;47.906;1.892;2024-03-08T06:30:08;4.50;99.90
49238;DHT22;35069;47.906;1.892;2024-03-08T06:32:35;4.60;99.90
49238;DHT22;35069;47.906;1.892;2024-03-08T06:35:02;4.60;99.90
49238;DHT22;35069;47.906;1.892;2024-03-08T06:37:32;4.60;99.90
49238;DHT22;35069;47.906;1.892;2024-03-08T06:39:57;4.60;99.90
49238;DHT22;35069;47.906;1.892;2024-03-08T06:42:23;4.70;99.90
49238;DHT22;35069;47.906;1.892;2024-03-08T06:44:49;4.80;99.90
49238;DHT22;35069;47.906;1.892;2024-03-08T06:47:18;5.00;99.90
49238;DHT22;35069;47.906;1.892;2024-03-08T06:49:43;5.20;99.90
49238;DHT22;35069;47.906;1.892;2024-03-08T06:52:10;5.40;99.90
49238;DHT22;35069;47.906;1.892;2024-03-08T06:54:36;5.60;99.90
49238;DHT22;35069;47.906;1.892;2024-03-08T06:57:05;5.70;99.90
49238;DHT22;35069;47.906;1.892;2024-03-08T06:59:32;5.80;99.90
49238;DHT22;35069;47.906;1.892;2024-03-08T07:01:57;5.90;99.90
49238;DHT22;35069;47.906;1.892;2024-03-08T07:04:25;6.00;99.90
49238;DHT22;35069;47.906;1.892;2024-03-08T07:06:54;6.30;99.90
49238;DHT22;35069;47.906;1.892;2024-03-08T07:09:20;6.60;99.90
49238;DHT22;35069;47.906;1.892;2024-03-08T07:11:45;6.60;99.90
49238;DHT22;35069;47.906;1.892;2024-03-08T07:14:12;6.70;99.90
49238;DHT22;35069;47.906;1.892;2024-03-08T07:16:40;6.90;99.90
49238;DHT22;35069;47.906;1.892;2024-03-08T07:19:07;7.00;99.90
49238;DHT22;35069;47.906;1.892;2024-03-08T07:21:32;7.30;99.90
49238;DHT22;35069;47.906;1.892;2024-03-08T07:23:58;7.40;99.90
49238;DHT22;35069;47.906;1.892;2024-03-08T07:26:26;7.70;99.90
49238;DHT22;35069;47.906;1.892;2024-03-08T07:28:52;7.80;99.90
49238;DHT22;35069;47.906;1.892;2024-03-08T07:31:20;7.80;99.90
49238;DHT22;35069;47.906;1.892;2024-03-08T07:34:00;7.90;99.90
49238;DHT22;35069;47.906;1.892;2024-03-08T07:36:26;7.80;99.90
49238;DHT22;35069;47.906;1.892;2024-03-08T07:38:51;8.10;99.90
49238;DHT22;35069;47.906;1.892;2024-03-08T07:41:17;8.20;99.90
49238;DHT22;35069;47.906;1.892;2024-03-08T07:43:43;8.70;99.90
49238;DHT22;35069;47.906;1.892;2024-03-08T07:46:11;9.30;99.90
49238;DHT22;35069;47.906;1.892;2024-03-08T07:48:38;9.70;99.90
49238;DHT22;35069;47.906;1.892;2024-03-08T07:51:05;9.50;99.90
49238;DHT22;35069;47.906;1.892;2024-03-08T07:53:31;9.50;99.90
49238;DHT22;35069;47.906;1.892;2024-03-08T07:55:56;9.70;99.90
49238;DHT22;35069;47.906;1.892;2024-03-08T07:58:22;10.20;99.90
49238;DHT22;35069;47.906;1.892;2024-03-08T08:00:49;10.00;99.90
49238;DHT22;35069;47.906;1.892;2024-03-08T08:03:15;9.30;99.90
49238;DHT22;35069;47.906;1.892;2024-03-08T08:05:41;8.70;99.90
49238;DHT22;35069;47.906;1.892;2024-03-08T08:08:10;8.30;99.90
49238;DHT22;35069;47.906;1.892;2024-03-08T08:10:36;8.20;99.90
49238;DHT22;35069;47.906;1.892;2024-03-08T08:13:02;8.00;99.90
49238;DHT22;35069;47.906;1.892;2024-03-08T08:15:30;8.20;99.90
49238;DHT22;35069;47.906;1.892;2024-03-08T08:17:55;8.30;99.90
49238;DHT22;35069;47.906;1.892;2024-03-08T08:20:21;8.50;99.90
49238;DHT22;35069;47.906;1.892;2024-03-08T08:22:47;8.70;99.90
49238;DHT22;35069;47.906;1.892;2024-03-08T08:25:13;8.50;99.90
49238;DHT22;35069;47.906;1.892;2024-03-08T08:27:45;8.50;99.90
49238;DHT22;35069;47.906;1.892;2024-03-08T08:30:12;8.40;99.90
49238;DHT22;35069;47.906;1.892;2024-03-08T08:32:38;8.40;99.90
49238;DHT22;35069;47.906;1.892;2024-03-08T08:35:09;8.40;99.90
49238;DHT22;35069;47.906;1.892;2024-03-08T08:37:38;8.40;99.90
49238;DHT22;35069;47.906;1.892;2024-03-08T08:40:05;8.40;99.90
49238;DHT22;35069;47.906;1.892;2024-03-08T08:42:40;8.40;99.90
49238;DHT22;35069;47.906;1.892;2024-03-08T08:45:06;8.60;99.90
49238;DHT22;35069;47.906;1.892;2024-03-08T08:47:37;8.70;99.90
49238;DHT22;35069;47.906;1.892;2024-03-08T08:50:04;8.70;99.90
49238;DHT22;35069;47.906;1.892;2024-03-08T08:52:31;8.80;99.90
49238;DHT22;35069;47.906;1.892;2024-03-08T08:54:57;8.80;99.90
49238;DHT22;35069;47.906;1.892;2024-03-08T08:57:22;8.90;99.90
49238;DHT22;35069;47.906;1.892;2024-03-08T08:59:48;9.00;99.90
49238;DHT22;35069;47.906;1.892;2024-03-08T09:02:14;9.10;99.90
49238;DHT22;35069;47.906;1.892;2024-03-08T09:04:40;9.40;99.90
49238;DHT22;35069;47.906;1.892;2024-03-08T09:07:06;9.60;99.90
49238;DHT22;35069;47.906;1.892;2024-03-08T09:09:32;9.60;99.90
49238;DHT22;35069;47.906;1.892;2024-03-08T09:11:58;10.20;99.90
49238;DHT22;35069;47.906;1.892;2024-03-08T09:14:23;10.40;99.90
49238;DHT22;35069;47.906;1.892;2024-03-08T09:16:51;10.60;99.90
49238;DHT22;35069;47.906;1.892;2024-03-08T09:19:17;11.00;99.90
49238;DHT22;35069;47.906;1.892;2024-03-08T09:21:44;11.60;99.90
49238;DHT22;35069;47.906;1.892;2024-03-08T09:24:10;12.50;99.90
49238;DHT22;35069;47.906;1.892;2024-03-08T09:26:36;12.60;99.90
49238;DHT22;35069;47.906;1.892;2024-03-08T09:29:02;12.60;99.90
49238;DHT22;35069;47.906;1.892;2024-03-08T09:31:28;12.40;99.90
49238;DHT22;35069;47.906;1.892;2024-03-08T09:33:54;12.40;99.90
49238;DHT22;35069;47.906;1.892;2024-03-08T09:36:19;12.50;99.90
49238;DHT22;35069;47.906;1.892;2024-03-08T09:38:45;13.30;99.90
49238;DHT22;35069;47.906;1.892;2024-03-08T09:41:11;13.60;99.90
49238;DHT22;35069;47.906;1.892;2024-03-08T09:43:38;13.40;99.70
49238;DHT22;35069;47.906;1.892;2024-03-08T09:46:04;13.30;98.90
49238;DHT22;35069;47.906;1.892;2024-03-08T09:48:32;13.50;99.30
49238;DHT22;35069;47.906;1.892;2024-03-08T09:50:57;13.50;98.90
49238;DHT22;35069;47.906;1.892;2024-03-08T09:53:23;13.90;98.80
49238;DHT22;35069;47.906;1.892;2024-03-08T09:55:49;14.10;98.60
49238;DHT22;35069;47.906;1.892;2024-03-08T09:58:16;14.60;98.70
49238;DHT22;35069;47.906;1.892;2024-03-08T10:00:48;14.90;97.70
49238;DHT22;35069;47.906;1.892;2024-03-08T10:03:13;15.90;98.10
49238;DHT22;35069;47.906;1.892;2024-03-08T10:05:41;16.50;98.00
49238;DHT22;35069;47.906;1.892;2024-03-08T10:08:07;16.80;96.60
49238;DHT22;35069;47.906;1.892;2024-03-08T10:10:34;17.50;96.50
49238;DHT22;35069;47.906;1.892;2024-03-08T10:13:00;18.10;96.10
49238;DHT22;35069;47.906;1.892;2024-03-08T10:15:29;18.90;95.30
49238;DHT22;35069;47.906;1.892;2024-03-08T10:17:57;19.30;93.80
49238;DHT22;35069;47.906;1.892;2024-03-08T10:20:23;19.20;92.40
49238;DHT22;35069;47.906;1.892;2024-03-08T10:22:49;19.20;92.20
49238;DHT22;35069;47.906;1.892;2024-03-08T10:25:15;19.10;91.20
49238;DHT22;35069;47.906;1.892;2024-03-08T10:27:41;19.10;91.20
49238;DHT22;35069;47.906;1.892;2024-03-08T10:30:10;19.40;90.70
49238;DHT22;35069;47.906;1.892;2024-03-08T10:32:38;19.30;89.80
49238;DHT22;35069;47.906;1.892;2024-03-08T10:35:05;19.00;88.20
49238;DHT22;35069;47.906;1.892;2024-03-08T10:37:33;18.40;86.40
49238;DHT22;35069;47.906;1.892;2024-03-08T10:40:04;17.70;85.40
49238;DHT22;35069;47.906;1.892;2024-03-08T10:42:40;17.10;85.10
49238;DHT22;35069;47.906;1.892;2024-03-08T10:45:38;17.80;86.40
49238;DHT22;35069;47.906;1.892;2024-03-08T10:48:29;18.50;83.50
49238;DHT22;35069;47.906;1.892;2024-03-08T10:50:59;19.10;81.70
49238;DHT22;35069;47.906;1.892;2024-03-08T10:53:28;18.70;84.00
49238;DHT22;35069;47.906;1.892;2024-03-08T10:55:56;17.70;83.20
49238;DHT22;35069;47.906;1.892;2024-03-08T10:58:24;17.20;84.00
49238;DHT22;35069;47.906;1.892;2024-03-08T11:00:56;17.50;85.30
49238;DHT22;35069;47.906;1.892;2024-03-08T11:06:07;18.00;82.90
49238;DHT22;35069;47.906;1.892;2024-03-08T11:08:36;17.20;83.90
49238;DHT22;35069;47.906;1.892;2024-03-08T11:11:02;16.90;84.10
49238;DHT22;35069;47.906;1.892;2024-03-08T11:13:34;16.60;84.00
49238;DHT22;35069;47.906;1.892;2024-03-08T11:16:01;16.50;84.60
49238;DHT22;35069;47.906;1.892;2024-03-08T11:18:32;16.50;84.70
49238;DHT22;35069;47.906;1.892;2024-03-08T11:20:58;17.10;85.00
49238;DHT22;35069;47.906;1.892;2024-03-08T11:23:27;18.10;84.50
49238;DHT22;35069;47.906;1.892;2024-03-08T11:25:56;19.20;83.30
49238;DHT22;35069;47.906;1.892;2024-03-08T11:28:25;19.60;81.60
49238;DHT22;35069;47.906;1.892;2024-03-08T11:33:28;19.00;78.60
49238;DHT22;35069;47.906;1.892;2024-03-08T11:36:13;18.20;80.50
49238;DHT22;35069;47.906;1.892;2024-03-08T11:38:50;17.50;81.50
49238;DHT22;35069;47.906;1.892;2024-03-08T11:41:25;17.40;82.60
49238;DHT22;35069;47.906;1.892;2024-03-08T11:44:03;17.30;83.50
49238;DHT22;35069;47.906;1.892;2024-03-08T11:46:32;17.20;82.60
49238;DHT22;35069;47.906;1.892;2024-03-08T11:49:00;17.10;83.10
49238;DHT22;35069;47.906;1.892;2024-03-08T11:51:27;17.00;83.40
49238;DHT22;35069;47.906;1.892;2024-03-08T11:53:53;16.70;83.50
49238;DHT22;35069;47.906;1.892;2024-03-08T11:56:18;16.20;83.40
49238;DHT22;35069;47.906;1.892;2024-03-08T11:58:55;16.00;84.00
49238;DHT22;35069;47.906;1.892;2024-03-08T12:01:24;15.90;85.10
49238;DHT22;35069;47.906;1.892;2024-03-08T12:03:54;15.70;85.10
49238;DHT22;35069;47.906;1.892;2024-03-08T12:06:20;15.50;86.00
49238;DHT22;35069;47.906;1.892;2024-03-08T12:08:46;15.20;86.00
49238;DHT22;35069;47.906;1.892;2024-03-08T12:11:14;15.00;86.80
49238;DHT22;35069;47.906;1.892;2024-03-08T12:13:41;14.80;87.10
49238;DHT22;35069;47.906;1.892;2024-03-08T12:16:07;14.60;87.90
49238;DHT22;35069;47.906;1.892;2024-03-08T12:18:36;14.40;89.30
49238;DHT22;35069;47.906;1.892;2024-03-08T12:21:10;14.40;89.30
49238;DHT22;35069;47.906;1.892;2024-03-08T12:23:37;14.70;90.40
49238;DHT22;35069;47.906;1.892;2024-03-08T12:26:18;15.10;90.30
49238;DHT22;35069;47.906;1.892;2024-03-08T12:28:48;15.30;89.70
49238;DHT22;35069;47.906;1.892;2024-03-08T12:31:16;15.40;90.00
49238;DHT22;35069;47.906;1.892;2024-03-08T12:36:18;15.90;89.20
49238;DHT22;35069;47.906;1.892;2024-03-08T12:38:44;16.10;89.00
49238;DHT22;35069;47.906;1.892;2024-03-08T12:41:13;16.00;88.60
49238;DHT22;35069;47.906;1.892;2024-03-08T12:43:39;15.90;88.80
49238;DHT22;35069;47.906;1.892;2024-03-08T12:46:05;15.80;89.40
49238;DHT22;35069;47.906;1.892;2024-03-08T12:48:34;15.70;88.70
49238;DHT22;35069;47.906;1.892;2024-03-08T12:51:01;16.00;88.60
49238;DHT22;35069;47.906;1.892;2024-03-08T12:53:26;16.00;87.70
49238;DHT22;35069;47.906;1.892;2024-03-08T12:55:54;15.90;87.00
49238;DHT22;35069;47.906;1.892;2024-03-08T12:58:22;15.90;86.70
49238;DHT22;35069;47.906;1.892;2024-03-08T13:00:47;15.90;86.40
49238;DHT22;35069;47.906;1.892;2024-03-08T13:03:13;15.80;85.70
49238;DHT22;35069;47.906;1.892;2024-03-08T13:05:39;15.80;85.90
49238;DHT22;35069;47.906;1.892;2024-03-08T13:08:06;15.80;85.70
49238;DHT22;35069;47.906;1.892;2024-03-08T13:10:37;15.80;86.00
49238;DHT22;35069;47.906;1.892;2024-03-08T13:13:03;15.60;82.80
49238;DHT22;35069;47.906;1.892;2024-03-08T13:15:30;15.40;84.40
49238;DHT22;35069;47.906;1.892;2024-03-08T13:17:56;15.50;85.20
49238;DHT22;35069;47.906;1.892;2024-03-08T13:20:25;15.40;84.70
49238;DHT22;35069;47.906;1.892;2024-03-08T13:22:54;15.40;84.80
49238;DHT22;35069;47.906;1.892;2024-03-08T13:25:20;15.60;84.90
49238;DHT22;35069;47.906;1.892;2024-03-08T13:27:46;15.60;84.60
49238;DHT22;35069;47.906;1.892;2024-03-08T13:30:13;15.60;84.40
49238;DHT22;35069;47.906;1.892;2024-03-08T13:32:41;15.50;84.00
49238;DHT22;35069;47.906;1.892;2024-03-08T13:35:09;15.50;84.10
49238;DHT22;35069;47.906;1.892;2024-03-08T13:37:39;15.60;84.10
49238;DHT22;35069;47.906;1.892;2024-03-08T13:40:05;15.70;84.50
49238;DHT22;35069;47.906;1.892;2024-03-08T13:42:31;15.70;84.00
49238;DHT22;35069;47.906;1.892;2024-03-08T13:44:57;15.70;83.50
49238;DHT22;35069;47.906;1.892;2024-03-08T13:47:22;15.80;83.60
49238;DHT22;35069;47.906;1.892;2024-03-08T13:49:50;15.70;83.50
49238;DHT22;35069;47.906;1.892;2024-03-08T13:52:16;15.50;83.00
49238;DHT22;35069;47.906;1.892;2024-03-08T13:54:42;15.40;83.30
49238;DHT22;35069;47.906;1.892;2024-03-08T13:57:08;15.40;83.30
49238;DHT22;35069;47.906;1.892;2024-03-08T13:59:34;15.40;83.60
49238;DHT22;35069;47.906;1.892;2024-03-08T14:02:01;15.30;83.40
49238;DHT22;35069;47.906;1.892;2024-03-08T14:04:28;15.40;83.70
49238;DHT22;35069;47.906;1.892;2024-03-08T14:06:54;15.30;83.60
49238;DHT22;35069;47.906;1.892;2024-03-08T14:09:31;15.20;83.40
49238;DHT22;35069;47.906;1.892;2024-03-08T14:11:57;15.10;83.30
49238;DHT22;35069;47.906;1.892;2024-03-08T14:14:24;15.10;82.80
49238;DHT22;35069;47.906;1.892;2024-03-08T14:16:50;15.00;83.10
49238;DHT22;35069;47.906;1.892;2024-03-08T14:19:19;15.00;83.10
49238;DHT22;35069;47.906;1.892;2024-03-08T14:21:44;15.10;83.10
49238;DHT22;35069;47.906;1.892;2024-03-08T14:24:10;15.10;83.00
49238;DHT22;35069;47.906;1.892;2024-03-08T14:26:36;15.00;82.70
49238;DHT22;35069;47.906;1.892;2024-03-08T14:29:10;15.00;82.70
49238;DHT22;35069;47.906;1.892;2024-03-08T14:31:37;15.00;83.00
49238;DHT22;35069;47.906;1.892;2024-03-08T14:34:02;15.00;83.10
49238;DHT22;35069;47.906;1.892;2024-03-08T14:36:29;14.90;83.20
49238;DHT22;35069;47.906;1.892;2024-03-08T14:38:55;14.90;83.40
49238;DHT22;35069;47.906;1.892;2024-03-08T14:41:21;14.90;83.50
49238;DHT22;35069;47.906;1.892;2024-03-08T14:43:48;15.00;83.70
49238;DHT22;35069;47.906;1.892;2024-03-08T14:46:16;15.10;83.80
49238;DHT22;35069;47.906;1.892;2024-03-08T14:48:54;15.00;83.50
49238;DHT22;35069;47.906;1.892;2024-03-08T14:51:22;15.00;83.70
49238;DHT22;35069;47.906;1.892;2024-03-08T14:53:52;14.90;83.70
49238;DHT22;35069;47.906;1.892;2024-03-08T14:56:20;15.00;84.30
49238;DHT22;35069;47.906;1.892;2024-03-08T14:58:46;15.00;84.50
49238;DHT22;35069;47.906;1.892;2024-03-08T15:01:15;14.90;85.20
49238;DHT22;35069;47.906;1.892;2024-03-08T15:03:41;14.90;84.90
49238;DHT22;35069;47.906;1.892;2024-03-08T15:06:08;14.80;85.00
49238;DHT22;35069;47.906;1.892;2024-03-08T15:08:38;14.80;85.20
49238;DHT22;35069;47.906;1.892;2024-03-08T15:11:05;14.90;85.60
49238;DHT22;35069;47.906;1.892;2024-03-08T15:13:32;14.70;84.00
49238;DHT22;35069;47.906;1.892;2024-03-08T15:16:06;14.60;84.20
49238;DHT22;35069;47.906;1.892;2024-03-08T15:18:33;14.60;84.10
49238;DHT22;35069;47.906;1.892;2024-03-08T15:21:04;14.50;84.00
49238;DHT22;35069;47.906;1.892;2024-03-08T15:23:36;14.40;83.80
49238;DHT22;35069;47.906;1.892;2024-03-08T15:26:03;14.40;84.00
49238;DHT22;35069;47.906;1.892;2024-03-08T15:28:33;14.30;84.40
49238;DHT22;35069;47.906;1.892;2024-03-08T15:31:03;14.30;85.10
49238;DHT22;35069;47.906;1.892;2024-03-08T15:33:33;14.30;85.60
49238;DHT22;35069;47.906;1.892;2024-03-08T15:35:59;14.30;85.80
49238;DHT22;35069;47.906;1.892;2024-03-08T15:38:29;14.20;86.40
49238;DHT22;35069;47.906;1.892;2024-03-08T15:40:55;14.20;86.50
49238;DHT22;35069;47.906;1.892;2024-03-08T15:43:23;14.10;86.90
49238;DHT22;35069;47.906;1.892;2024-03-08T15:45:53;14.10;87.30
49238;DHT22;35069;47.906;1.892;2024-03-08T15:48:20;14.10;87.50
49238;DHT22;35069;47.906;1.892;2024-03-08T15:50:46;14.10;88.00